Time;durP1;ratioP1;P1;durP2;ratioP2;P2;SDS_P1;SDS_P2;PMS_P1;PMS_P2;Temp;Humidity;BMP_temperature;BMP_pressure;BME280_temperature;BME280_humidity;BME280_pressure;Samples;Min_cycle;Max_cycle;Signal;HPM_P1;HPM_P2
2022/02/26 00:00:23;;;;;;;9.80;2.60;;;0.60;96.30;;;;;;4974480;28;20285;-73
2022/02/26 00:02:49;;;;;;;4.53;2.03;;;0.60;96.30;;;;;;4973935;28;20195;-73
2022/02/26 00:05:15;;;;;;;6.73;2.30;;;0.60;96.30;;;;;;4974502;28;20171;-73
2022/02/26 00:07:40;;;;;;;2.63;1.77;;;0.60;96.30;;;;;;4974132;28;20208;-73
2022/02/26 00:10:06;;;;;;;6.70;1.97;;;0.60;96.30;;;;;;4974350;28;20228;-73
2022/02/26 00:12:32;;;;;;;11.23;2.67;;;0.60;96.30;;;;;;4974253;28;20739;-74
2022/02/26 00:14:57;;;;;;;8.53;2.47;;;0.60;96.30;;;;;;4956868;28;20460;-74
2022/02/26 00:17:23;;;;;;;4.67;1.73;;;0.60;96.30;;;;;;4974246;28;20206;-74
2022/02/26 00:19:48;;;;;;;12.00;2.67;;;0.60;96.30;;;;;;4956642;28;20181;-74
2022/02/26 00:22:14;;;;;;;7.37;2.50;;;0.60;96.30;;;;;;4956626;28;20233;-74
2022/02/26 00:24:39;;;;;;;11.20;2.33;;;0.60;96.30;;;;;;4974147;28;20186;-74
2022/02/26 00:27:05;;;;;;;5.33;1.90;;;0.60;96.30;;;;;;4974061;28;20178;-74
2022/02/26 00:29:34;;;;;;;14.40;3.17;;;0.60;96.30;;;;;;4973704;28;20182;-74
2022/02/26 00:32:01;;;;;;;4.50;2.37;;;0.60;96.30;;;;;;4973578;28;20233;-74
2022/02/26 00:34:26;;;;;;;14.57;2.43;;;0.60;96.30;;;;;;4973313;28;20917;-74
2022/02/26 00:36:52;;;;;;;11.63;2.30;;;0.60;96.30;;;;;;4956229;28;20505;-75
2022/02/26 00:39:18;;;;;;;6.73;2.40;;;0.60;96.30;;;;;;4973258;28;20178;-74
2022/02/26 00:41:43;;;;;;;14.73;2.30;;;0.60;96.30;;;;;;4973566;28;20825;-74
2022/02/26 00:44:09;;;;;;;10.73;2.20;;;0.60;96.30;;;;;;4973417;28;20202;-74
2022/02/26 00:46:35;;;;;;;18.53;2.50;;;0.60;96.30;;;;;;4973674;28;20411;-74
2022/02/26 00:51:45;;;;;;;7.33;1.93;;;0.60;96.30;;;;;;4973787;28;20240;-74
2022/02/26 00:54:10;;;;;;;3.40;1.90;;;0.70;96.30;;;;;;4956039;28;20536;-74
2022/02/26 00:56:36;;;;;;;7.50;1.90;;;0.60;96.30;;;;;;4973567;28;20182;-74
2022/02/26 00:59:01;;;;;;;7.13;2.60;;;0.60;96.30;;;;;;4973185;28;20188;-75
2022/02/26 05:02:18;;;;;;;6.27;1.50;;;0.20;96.30;;;;;;5117864;23;21005;-77
2022/02/26 05:04:43;;;;;;;9.63;1.93;;;0.20;96.30;;;;;;4973422;28;20473;-75
2022/02/26 05:07:09;;;;;;;12.87;2.00;;;0.20;96.30;;;;;;4973384;28;20444;-76
2022/02/26 05:09:34;;;;;;;11.50;3.40;;;0.20;96.30;;;;;;4967256;28;20180;-76
2022/02/26 05:12:00;;;;;;;6.10;1.77;;;0.20;96.30;;;;;;4977452;28;20260;-75
2022/02/26 05:14:26;;;;;;;16.13;2.33;;;0.10;96.30;;;;;;4975836;28;20271;-74
2022/02/26 05:16:51;;;;;;;12.43;2.20;;;0.20;96.30;;;;;;4984308;28;20237;-74
2022/02/26 05:19:17;;;;;;;14.83;2.50;;;0.20;96.30;;;;;;4979513;28;20616;-74
2022/02/26 05:24:18;;;;;;;13.00;2.10;;;0.20;96.30;;;;;;6100657;23;20581;-74
2022/02/26 05:26:44;;;;;;;14.53;2.03;;;0.10;96.30;;;;;;4952475;29;20434;-73
2022/02/26 05:29:09;;;;;;;4.73;1.70;;;0.10;96.30;;;;;;4953513;29;20235;-73
2022/02/26 05:31:35;;;;;;;12.17;2.20;;;0.10;96.30;;;;;;4953796;29;20206;-74
2022/02/26 05:34:01;;;;;;;15.80;2.17;;;0.10;96.30;;;;;;4953850;29;20523;-75
2022/02/26 05:36:27;;;;;;;9.43;2.00;;;0.10;96.30;;;;;;4953826;29;20187;-75
2022/02/26 05:38:52;;;;;;;11.57;1.87;;;0.10;96.30;;;;;;4953371;29;20505;-74
2022/02/26 05:41:18;;;;;;;12.13;2.90;;;0.10;96.30;;;;;;4953663;29;20207;-74
2022/02/26 05:43:43;;;;;;;11.90;2.33;;;0.10;96.30;;;;;;4936628;29;20672;-74
2022/02/26 05:46:09;;;;;;;9.07;2.80;;;0.10;96.30;;;;;;4953811;29;20171;-74
2022/02/26 05:48:34;;;;;;;11.53;2.80;;;0.10;96.30;;;;;;4953321;29;20790;-73
2022/02/26 05:51:01;;;;;;;7.13;2.00;;;0.00;96.30;;;;;;4936336;29;20210;-74
2022/02/26 05:53:28;;;;;;;12.40;2.00;;;0.00;96.30;;;;;;4953653;29;20175;-73
2022/02/26 05:55:53;;;;;;;14.97;2.60;;;0.10;96.30;;;;;;4936377;29;20940;-75
2022/02/26 05:58:19;;;;;;;6.73;1.93;;;0.00;96.30;;;;;;4953178;29;20422;-74
2022/02/26 06:00:44;;;;;;;9.57;2.30;;;0.00;96.30;;;;;;4937194;29;20233;-74
2022/02/26 06:03:10;;;;;;;16.67;3.10;;;0.00;96.30;;;;;;4939592;29;20174;-74
2022/02/26 06:05:35;;;;;;;16.10;2.57;;;0.10;96.30;;;;;;4957154;29;20175;-73
2022/02/26 06:08:01;;;;;;;12.10;2.03;;;0.10;96.30;;;;;;4956666;29;20179;-73
2022/02/26 06:10:26;;;;;;;13.67;2.70;;;0.10;96.30;;;;;;4957030;29;20186;-74
2022/02/26 06:12:52;;;;;;;8.87;2.57;;;0.10;96.30;;;;;;4956965;29;20647;-73
2022/02/26 06:15:17;;;;;;;7.67;2.80;;;0.10;96.30;;;;;;4939787;29;20179;-74
2022/02/26 06:17:43;;;;;;;14.90;2.73;;;0.10;96.30;;;;;;4956577;29;20234;-74
2022/02/26 06:20:09;;;;;;;13.20;2.07;;;0.10;96.30;;;;;;4956771;29;20541;-74
2022/02/26 06:22:35;;;;;;;12.80;2.60;;;0.10;96.30;;;;;;4939508;29;20178;-74
2022/02/26 06:25:00;;;;;;;3.90;1.80;;;0.10;96.30;;;;;;4956801;29;20445;-74
2022/02/26 06:27:26;;;;;;;8.37;2.33;;;0.00;96.30;;;;;;4956454;29;20179;-74
2022/02/26 06:29:51;;;;;;;15.90;1.67;;;0.00;96.30;;;;;;4939563;29;20185;-73
2022/02/26 06:32:17;;;;;;;6.53;1.67;;;0.00;96.30;;;;;;4956638;29;20570;-75
2022/02/26 06:34:42;;;;;;;4.67;1.53;;;0.00;96.30;;;;;;4956574;29;20175;-72
2022/02/26 06:37:08;;;;;;;4.87;1.83;;;0.00;96.30;;;;;;4956355;29;20700;-72
2022/02/26 06:39:34;;;;;;;3.10;1.50;;;0.00;96.30;;;;;;4955840;29;20187;-72
2022/02/26 06:41:59;;;;;;;3.77;1.60;;;0.00;96.30;;;;;;4938979;29;20214;-72
2022/02/26 06:44:25;;;;;;;5.30;1.70;;;0.10;96.30;;;;;;4956069;29;20207;-74
2022/02/26 06:46:51;;;;;;;4.00;1.93;;;0.00;96.30;;;;;;4956334;29;20178;-72
2022/02/26 06:49:16;;;;;;;6.77;2.40;;;0.00;96.30;;;;;;4955497;29;20175;-72
2022/02/26 06:51:42;;;;;;;9.63;2.73;;;0.10;96.30;;;;;;4956200;29;20210;-72
2022/02/26 06:54:08;;;;;;;11.77;2.90;;;0.10;96.30;;;;;;4938953;29;20182;-74
2022/02/26 06:56:33;;;;;;;7.90;3.20;;;0.10;96.30;;;;;;4956131;29;20179;-72
2022/02/26 06:58:59;;;;;;;10.10;2.87;;;0.10;96.30;;;;;;4955392;29;20186;-72
2022/02/26 07:01:25;;;;;;;6.20;2.37;;;0.10;96.30;;;;;;4955961;29;20218;-72
2022/02/26 07:03:51;;;;;;;13.90;2.87;;;0.10;96.30;;;;;;4955988;29;20274;-74
2022/02/26 07:06:16;;;;;;;6.37;2.70;;;0.10;96.30;;;;;;4955820;29;20174;-73
2022/02/26 07:08:42;;;;;;;9.80;4.00;;;0.10;96.30;;;;;;4954909;29;20411;-73
2022/02/26 07:11:07;;;;;;;9.70;3.37;;;0.10;96.30;;;;;;4938465;29;20207;-74
2022/02/26 07:13:33;;;;;;;8.80;3.47;;;0.10;96.30;;;;;;4937220;29;20570;-75
2022/02/26 07:15:59;;;;;;;10.93;3.20;;;0.20;96.30;;;;;;4955672;29;20175;-74
2022/02/26 07:18:24;;;;;;;10.60;3.50;;;0.20;96.30;;;;;;4955086;29;20297;-74
2022/02/26 07:20:50;;;;;;;5.80;2.87;;;0.20;96.30;;;;;;4938252;29;20309;-76
2022/02/26 07:23:16;;;;;;;9.60;3.33;;;0.20;96.30;;;;;;4938035;29;20189;-76
2022/02/26 07:25:42;;;;;;;11.33;2.87;;;0.20;96.30;;;;;;4955481;29;20194;-75
2022/02/26 07:28:09;;;;;;;10.33;3.20;;;0.30;96.30;;;;;;4954626;29;20175;-75
2022/02/26 07:30:35;;;;;;;10.70;3.50;;;0.30;96.30;;;;;;4955324;29;20434;-73
2022/02/26 07:33:01;;;;;;;17.90;3.73;;;0.30;96.30;;;;;;4955104;29;20454;-74
2022/02/26 07:35:26;;;;;;;9.87;2.93;;;0.30;96.30;;;;;;4955441;29;20866;-77
2022/02/26 07:37:51;;;;;;;8.07;3.87;;;0.30;96.30;;;;;;4937347;29;20185;-75
2022/02/26 07:40:17;;;;;;;14.93;4.83;;;0.30;96.30;;;;;;4954986;29;20245;-75
2022/02/26 07:42:42;;;;;;;13.57;5.43;;;0.40;96.30;;;;;;4955129;29;20183;-76
2022/02/26 07:45:08;;;;;;;16.83;5.10;;;0.40;96.30;;;;;;4955370;29;20668;-74
2022/02/26 07:47:34;;;;;;;12.90;5.30;;;0.40;96.30;;;;;;4954488;29;20173;-75
2022/02/26 07:49:59;;;;;;;17.03;3.37;;;0.40;96.30;;;;;;4955035;29;20175;-73
2022/02/26 07:52:27;;;;;;;15.33;3.70;;;0.40;96.30;;;;;;4955235;29;20665;-76
2022/02/26 07:54:53;;;;;;;25.23;6.27;;;0.40;96.30;;;;;;4937437;29;20183;-73
2022/02/26 07:57:19;;;;;;;15.70;5.03;;;0.50;96.30;;;;;;4954943;29;20428;-76
2022/02/26 07:59:44;;;;;;;17.50;5.63;;;0.50;96.30;;;;;;4954413;29;20427;-77
2022/02/26 08:02:10;;;;;;;18.93;5.93;;;0.60;96.30;;;;;;4937263;29;20245;-77
2022/02/26 08:04:37;;;;;;;17.97;5.00;;;0.70;96.30;;;;;;4945666;29;20179;-78
2022/02/26 08:07:04;;;;;;;23.10;5.47;;;0.70;96.30;;;;;;4948329;29;20538;-76
2022/02/26 08:09:30;;;;;;;12.77;4.20;;;0.80;96.30;;;;;;4952291;29;20430;-77
2022/02/26 08:11:55;;;;;;;16.10;5.10;;;0.80;96.30;;;;;;4954334;29;20445;-77
2022/02/26 08:14:21;;;;;;;13.43;5.03;;;0.90;96.30;;;;;;4941647;29;20518;-74
2022/02/26 08:16:46;;;;;;;14.43;4.37;;;0.90;96.30;;;;;;4954110;29;20195;-76
2022/02/26 08:19:12;;;;;;;17.93;4.57;;;0.90;96.30;;;;;;4954149;29;20667;-77
2022/02/26 08:21:37;;;;;;;20.40;5.63;;;0.90;96.30;;;;;;4955798;29;20239;-77
2022/02/26 08:24:03;;;;;;;18.77;3.77;;;0.80;96.30;;;;;;4954801;28;20178;-77
2022/02/26 08:26:29;;;;;;;10.23;3.90;;;0.80;96.30;;;;;;4954935;29;20257;-75
2022/02/26 08:28:54;;;;;;;28.20;5.90;;;0.80;96.30;;;;;;4954319;29;20206;-75
2022/02/26 08:31:22;;;;;;;11.83;4.40;;;0.80;96.30;;;;;;4937275;29;20206;-76
2022/02/26 08:33:48;;;;;;;21.17;5.80;;;0.80;96.30;;;;;;4954598;29;20617;-75
2022/02/26 08:36:14;;;;;;;11.47;3.70;;;0.80;96.30;;;;;;4954393;29;20422;-75
2022/02/26 08:38:41;;;;;;;15.77;5.20;;;0.80;96.30;;;;;;4953799;29;20183;-77
2022/02/26 08:41:06;;;;;;;15.93;4.20;;;0.80;96.30;;;;;;4936892;29;20462;-76
2022/02/26 08:43:32;;;;;;;11.40;3.50;;;0.80;96.30;;;;;;4954042;29;20421;-75
2022/02/26 08:45:57;;;;;;;15.37;4.47;;;0.90;96.30;;;;;;4937254;29;20546;-76
2022/02/26 08:48:23;;;;;;;12.43;4.90;;;0.90;96.30;;;;;;4953947;29;20171;-73
2022/02/26 08:50:49;;;;;;;14.07;3.57;;;0.90;96.30;;;;;;4937091;29;20202;-74
2022/02/26 08:53:14;;;;;;;12.03;4.50;;;0.90;96.30;;;;;;4954375;29;20178;-76
2022/02/26 08:55:40;;;;;;;16.53;3.33;;;1.00;96.30;;;;;;4953886;29;20186;-73
2022/02/26 08:58:05;;;;;;;13.47;3.40;;;1.00;96.30;;;;;;4953694;29;20183;-74
2022/02/26 09:00:31;;;;;;;11.53;3.17;;;1.10;96.30;;;;;;4954207;29;20582;-74
2022/02/26 09:02:57;;;;;;;10.47;3.80;;;1.10;96.30;;;;;;4954019;29;20606;-73
2022/02/26 09:05:22;;;;;;;13.27;4.10;;;1.10;96.30;;;;;;4936865;29;20178;-73
2022/02/26 09:07:48;;;;;;;13.30;3.77;;;1.10;96.30;;;;;;4953588;29;20171;-74
2022/02/26 09:10:13;;;;;;;20.13;4.13;;;1.20;96.30;;;;;;4953996;29;20549;-74
2022/02/26 09:12:40;;;;;;;12.97;3.50;;;1.20;96.30;;;;;;4954077;29;20177;-77
2022/02/26 09:15:06;;;;;;;15.60;3.97;;;1.30;96.30;;;;;;4954142;29;20175;-73
2022/02/26 09:17:32;;;;;;;17.23;4.47;;;1.20;96.30;;;;;;4953160;29;20449;-73
2022/02/26 09:19:58;;;;;;;8.60;4.07;;;1.30;96.30;;;;;;4935257;28;20435;-73
2022/02/26 09:22:23;;;;;;;13.90;3.47;;;1.30;96.30;;;;;;4914513;29;20249;-75
2022/02/26 09:24:49;;;;;;;20.03;3.77;;;1.30;96.30;;;;;;4940127;29;20199;-74
2022/02/26 09:27:14;;;;;;;16.67;4.10;;;1.30;96.30;;;;;;4936866;29;20175;-74
2022/02/26 09:29:40;;;;;;;12.27;3.60;;;1.30;96.30;;;;;;4951716;29;20273;-75
2022/02/26 09:32:07;;;;;;;12.90;4.20;;;1.30;96.30;;;;;;4948915;29;20278;-74
2022/02/26 09:34:33;;;;;;;20.00;4.67;;;1.40;96.30;;;;;;4933754;29;20626;-74
2022/02/26 09:36:58;;;;;;;24.63;4.63;;;1.40;96.30;;;;;;4933537;29;20419;-74
2022/02/26 09:39:24;;;;;;;14.23;3.23;;;1.40;96.30;;;;;;4916158;29;20430;-74
2022/02/26 09:41:50;;;;;;;12.53;3.27;;;1.40;96.30;;;;;;4933512;29;20218;-74
2022/02/26 09:44:16;;;;;;;19.70;4.97;;;1.40;96.30;;;;;;4934196;29;20212;-74
2022/02/26 09:46:43;;;;;;;19.80;4.47;;;1.50;96.30;;;;;;4933614;29;20271;-73
2022/02/26 09:49:09;;;;;;;16.63;3.80;;;1.50;96.30;;;;;;4932953;29;20412;-74
2022/02/26 09:51:38;;;;;;;12.20;3.90;;;1.70;96.30;;;;;;4936937;29;20461;-74
2022/02/26 09:54:03;;;;;;;12.57;4.67;;;1.70;96.30;;;;;;4948823;29;20430;-74
2022/02/26 09:56:29;;;;;;;7.63;3.40;;;1.70;96.30;;;;;;4952633;28;20534;-73
2022/02/26 09:58:55;;;;;;;20.00;4.70;;;1.70;96.30;;;;;;4941941;29;20268;-73
2022/02/26 10:01:20;;;;;;;16.53;3.80;;;1.70;96.30;;;;;;4952278;29;20206;-73
2022/02/26 10:03:46;;;;;;;16.33;4.70;;;1.70;96.30;;;;;;4953102;29;20865;-74
2022/02/26 10:06:22;;;;;;;16.20;3.60;;;1.60;96.30;;;;;;4935863;29;20185;-74
2022/02/26 10:08:58;;;;;;;14.83;5.37;;;1.60;96.30;;;;;;4949964;29;20700;-75
2022/02/26 10:11:30;;;;;;;33.73;5.30;;;1.50;96.30;;;;;;4949063;29;20464;-73
2022/02/26 10:14:13;;;;;;;14.50;3.83;;;1.50;96.30;;;;;;4952594;28;20469;-74
2022/02/26 10:16:57;;;;;;;14.37;4.20;;;1.40;96.30;;;;;;4933952;29;20423;-74
2022/02/26 10:19:32;;;;;;;19.70;4.40;;;1.40;96.30;;;;;;4915966;29;21130;-73
2022/02/26 10:22:03;;;;;;;16.10;4.20;;;1.50;96.30;;;;;;4933616;29;21014;-74
2022/02/26 10:24:30;;;;;;;16.40;4.80;;;1.50;96.30;;;;;;4931840;29;20804;-75
2022/02/26 10:26:59;;;;;;;15.73;4.10;;;1.60;96.30;;;;;;4919669;29;20426;-74
2022/02/26 10:29:25;;;;;;;12.03;3.67;;;1.60;96.30;;;;;;4951458;29;20418;-73
2022/02/26 10:31:53;;;;;;;9.17;3.60;;;1.70;96.30;;;;;;4952462;29;20465;-74
2022/02/26 10:34:39;;;;;;;20.63;4.40;;;1.70;96.30;;;;;;4952454;29;20178;-73
2022/02/26 10:37:08;;;;;;;15.00;3.97;;;1.70;96.30;;;;;;4952169;29;20429;-73
2022/02/26 10:39:45;;;;;;;8.63;2.83;;;1.70;96.30;;;;;;4951730;29;20426;-74
2022/02/26 10:42:19;;;;;;;10.30;3.60;;;1.70;96.30;;;;;;4952215;29;20501;-75
2022/02/26 10:44:45;;;;;;;13.63;4.17;;;1.80;96.30;;;;;;4952414;29;20813;-74
2022/02/26 10:47:15;;;;;;;15.90;6.73;;;1.90;96.30;;;;;;4953374;28;20426;-74
2022/02/26 10:49:43;;;;;;;20.67;5.10;;;1.80;96.30;;;;;;4954998;29;20167;-74
2022/02/26 10:52:10;;;;;;;15.07;4.13;;;1.80;96.30;;;;;;4955419;29;20423;-74
2022/02/26 10:54:38;;;;;;;15.10;4.10;;;1.80;96.30;;;;;;4938234;29;20959;-73
2022/02/26 10:57:05;;;;;;;11.30;4.07;;;1.80;96.30;;;;;;4955659;29;20453;-74
2022/02/26 10:59:36;;;;;;;6.80;3.27;;;1.70;96.30;;;;;;4954311;29;20450;-74
2022/02/26 11:02:21;;;;;;;15.03;3.73;;;1.70;96.30;;;;;;4949929;29;20505;-73
2022/02/26 11:04:46;;;;;;;11.40;3.80;;;1.70;96.30;;;;;;4941546;29;20419;-72
2022/02/26 11:07:15;;;;;;;19.67;5.00;;;1.70;96.30;;;;;;4936826;29;20410;-73
2022/02/26 11:09:45;;;;;;;16.97;4.47;;;1.60;96.30;;;;;;4936044;29;20203;-72
2022/02/26 11:12:15;;;;;;;16.67;4.67;;;1.60;96.30;;;;;;4936641;29;20443;-72
2022/02/26 11:15:01;;;;;;;11.33;3.83;;;1.50;96.30;;;;;;4936462;29;20902;-73
2022/02/26 11:17:30;;;;;;;11.50;3.70;;;1.50;96.30;;;;;;4935385;29;20451;-73
2022/02/26 11:19:59;;;;;;;18.20;3.77;;;1.50;96.30;;;;;;4936574;29;20452;-73
2022/02/26 11:22:26;;;;;;;12.67;3.30;;;1.50;96.30;;;;;;4936012;29;20506;-74
2022/02/26 11:24:55;;;;;;;18.40;3.60;;;1.50;96.30;;;;;;4939686;29;20444;-74
2022/02/26 11:27:26;;;;;;;10.17;3.43;;;1.50;96.30;;;;;;4932176;29;20838;-74
2022/02/26 11:29:54;;;;;;;17.07;3.80;;;1.50;96.30;;;;;;4944356;29;20438;-74
2022/02/26 11:32:21;;;;;;;11.10;3.20;;;1.40;96.30;;;;;;4953102;29;20458;-74
2022/02/26 11:34:47;;;;;;;12.37;3.67;;;1.40;96.30;;;;;;4955325;29;20403;-74
2022/02/26 11:37:16;;;;;;;19.23;3.90;;;1.40;96.30;;;;;;4954884;29;20566;-74
2022/02/26 11:39:52;;;;;;;17.30;3.17;;;1.40;96.30;;;;;;4954410;29;20418;-74
2022/02/26 11:42:24;;;;;;;12.33;4.30;;;1.40;96.30;;;;;;4955164;29;20964;-74
2022/02/26 11:45:10;;;;;;;12.00;3.50;;;1.40;96.30;;;;;;4954754;29;21491;-74
2022/02/26 11:47:58;;;;;;;15.30;3.20;;;1.40;96.30;;;;;;4949955;29;20913;-74
2022/02/26 11:50:31;;;;;;;12.93;3.43;;;1.40;96.30;;;;;;4953710;29;20410;-74
2022/02/26 11:53:04;;;;;;;11.40;3.70;;;1.40;96.30;;;;;;4937808;29;20441;-74
2022/02/26 11:55:34;;;;;;;13.73;2.90;;;1.30;96.30;;;;;;4937784;29;20441;-74
2022/02/26 11:58:31;;;;;;;12.07;2.87;;;1.30;96.30;;;;;;4953750;28;20886;-74
2022/02/26 12:01:12;;;;;;;16.53;3.87;;;1.30;96.30;;;;;;4952611;29;20589;-74
2022/02/26 12:03:41;;;;;;;18.67;3.43;;;1.40;96.30;;;;;;4931775;29;20459;-75
2022/02/26 12:06:09;;;;;;;13.60;3.10;;;1.40;96.30;;;;;;4936825;29;20414;-74
2022/02/26 12:08:44;;;;;;;11.77;2.80;;;1.40;96.30;;;;;;4947970;29;20427;-75
2022/02/26 12:11:12;;;;;;;13.87;3.17;;;1.50;96.30;;;;;;4945601;29;20944;-76
2022/02/26 12:13:40;;;;;;;11.93;2.80;;;1.50;96.30;;;;;;4949955;29;20454;-75
2022/02/26 12:16:21;;;;;;;15.57;3.30;;;1.50;96.30;;;;;;4954512;29;20442;-74
2022/02/26 12:19:01;;;;;;;7.90;2.33;;;1.50;96.30;;;;;;4953746;29;20422;-76
2022/02/26 12:21:30;;;;;;;8.20;2.20;;;1.50;96.30;;;;;;4940588;29;20459;-76
2022/02/26 12:24:20;;;;;;;15.60;3.00;;;1.60;96.30;;;;;;4945268;29;20442;-75
2022/02/26 12:26:52;;;;;;;14.00;2.83;;;1.60;96.30;;;;;;4938684;29;20419;-74
2022/02/26 12:29:23;;;;;;;16.03;4.03;;;1.60;96.30;;;;;;4934750;29;20414;-75
2022/02/26 12:32:05;;;;;;;12.57;2.30;;;1.60;96.30;;;;;;4935096;29;20439;-74
2022/02/26 12:34:37;;;;;;;13.43;3.00;;;1.60;96.30;;;;;;4934925;29;20483;-75
2022/02/26 12:37:05;;;;;;;15.27;3.87;;;1.60;96.30;;;;;;4936973;29;20775;-75
2022/02/26 12:39:31;;;;;;;19.83;3.87;;;1.60;96.30;;;;;;4936243;29;20454;-76
2022/02/26 12:41:57;;;;;;;8.07;3.00;;;1.70;96.30;;;;;;4953902;29;20890;-77
2022/02/26 12:44:26;;;;;;;10.63;2.77;;;1.90;96.30;;;;;;4930731;29;20264;-75
2022/02/26 12:46:52;;;;;;;18.07;3.33;;;2.00;96.30;;;;;;4953616;29;20684;-73
2022/02/26 12:49:17;;;;;;;17.70;3.60;;;2.10;96.30;;;;;;4953530;29;20493;-73
2022/02/26 12:51:43;;;;;;;14.20;3.90;;;2.10;96.30;;;;;;4953846;29;20437;-73
2022/02/26 12:54:12;;;;;;;15.37;3.20;;;2.10;96.30;;;;;;4953809;29;20175;-73
2022/02/26 12:56:39;;;;;;;10.37;3.07;;;2.20;96.30;;;;;;4949741;29;20430;-74
2022/02/26 12:59:19;;;;;;;17.33;4.00;;;2.20;96.30;;;;;;4944256;29;20445;-74
2022/02/26 13:01:47;;;;;;;12.27;3.30;;;2.20;96.30;;;;;;4938938;29;20546;-74
2022/02/26 13:04:37;;;;;;;20.23;5.13;;;2.20;96.30;;;;;;4945749;29;20467;-73
2022/02/26 13:07:09;;;;;;;15.83;3.53;;;2.20;96.30;;;;;;4929847;29;20430;-73
2022/02/26 13:09:50;;;;;;;15.53;3.30;;;2.20;96.30;;;;;;4945427;28;20409;-73
2022/02/26 13:12:17;;;;;;;21.20;2.93;;;2.20;96.30;;;;;;4936897;29;20785;-75
2022/02/26 13:14:51;;;;;;;16.40;3.67;;;2.30;96.30;;;;;;4953894;29;20436;-73
2022/02/26 13:17:16;;;;;;;13.30;3.37;;;2.40;96.30;;;;;;4953885;29;20763;-73
2022/02/26 13:19:42;;;;;;;12.30;3.00;;;2.40;96.30;;;;;;4953695;29;20412;-75
2022/02/26 13:22:07;;;;;;;13.70;3.10;;;2.40;96.30;;;;;;4938270;29;20641;-72
2022/02/26 13:24:38;;;;;;;14.97;3.70;;;2.40;96.30;;;;;;4946253;29;20179;-72
2022/02/26 13:27:09;;;;;;;15.40;2.60;;;2.40;96.30;;;;;;4953740;29;20225;-73
2022/02/26 13:29:42;;;;;;;15.90;3.70;;;2.40;96.30;;;;;;4942809;29;20404;-73
2022/02/26 13:32:29;;;;;;;16.83;3.13;;;2.50;96.30;;;;;;4947126;29;20450;-73
2022/02/26 13:34:58;;;;;;;10.50;2.87;;;2.50;96.30;;;;;;4937448;29;20430;-74
2022/02/26 13:37:29;;;;;;;11.80;3.50;;;2.50;96.30;;;;;;4953022;29;20419;-74
2022/02/26 13:39:55;;;;;;;12.83;3.00;;;2.60;96.30;;;;;;4953031;29;20936;-75
2022/02/26 13:42:24;;;;;;;17.93;4.63;;;2.70;96.30;;;;;;4952845;29;20553;-75
2022/02/26 13:45:00;;;;;;;15.47;3.97;;;2.90;96.30;;;;;;4953397;29;20402;-75
2022/02/26 13:47:27;;;;;;;11.03;2.43;;;2.90;96.30;;;;;;4952806;29;20501;-75
2022/02/26 13:49:55;;;;;;;11.80;3.23;;;2.90;96.30;;;;;;4936101;29;20495;-75
2022/02/26 13:52:22;;;;;;;12.10;2.93;;;2.80;96.30;;;;;;4936023;29;20904;-76
2022/02/26 13:54:50;;;;;;;10.63;2.70;;;2.80;96.30;;;;;;4946017;29;20418;-76
2022/02/26 13:57:18;;;;;;;12.77;3.33;;;2.70;96.30;;;;;;4940957;29;20427;-75
2022/02/26 13:59:47;;;;;;;11.57;2.93;;;2.80;96.30;;;;;;4938155;29;20446;-77
2022/02/26 14:02:26;;;;;;;16.17;3.80;;;2.80;96.30;;;;;;4916737;29;20467;-77
2022/02/26 14:04:59;;;;;;;13.30;4.43;;;2.80;96.30;;;;;;4934621;29;20419;-76
2022/02/26 14:07:54;;;;;;;6.30;2.60;;;2.80;96.30;;;;;;4923884;29;20929;-76
2022/02/26 14:10:21;;;;;;;13.13;2.70;;;2.90;96.30;;;;;;4918001;29;20423;-79
2022/02/26 14:12:50;;;;;;;13.23;2.70;;;2.90;96.30;;;;;;4933998;29;20427;-78
2022/02/26 14:15:16;;;;;;;13.97;3.47;;;2.90;96.30;;;;;;4917023;29;20423;-79
2022/02/26 14:17:46;;;;;;;15.23;3.30;;;2.90;96.30;;;;;;4916825;29;20430;-78
2022/02/26 14:20:13;;;;;;;17.90;3.87;;;2.90;96.30;;;;;;4934520;29;20446;-78
2022/02/26 14:22:39;;;;;;;8.30;2.80;;;2.80;96.30;;;;;;4955827;28;20458;-77
2022/02/26 14:25:08;;;;;;;14.10;3.03;;;2.90;96.30;;;;;;4939312;29;20438;-77
2022/02/26 14:27:35;;;;;;;9.27;2.70;;;2.90;96.30;;;;;;4956485;29;20417;-78
2022/02/26 14:30:20;;;;;;;13.40;3.50;;;2.90;96.30;;;;;;4956843;29;20802;-77
2022/02/26 14:32:56;;;;;;;15.80;4.30;;;2.90;96.30;;;;;;4939698;29;20943;-79
2022/02/26 14:35:24;;;;;;;17.00;3.00;;;2.90;96.30;;;;;;4939567;29;20877;-80
2022/02/26 14:37:51;;;;;;;13.73;2.97;;;2.80;96.30;;;;;;4936195;29;20462;-82
2022/02/26 14:40:20;;;;;;;15.43;3.20;;;2.80;96.30;;;;;;4921200;29;20819;-80
2022/02/26 14:42:46;;;;;;;15.50;3.27;;;2.80;96.30;;;;;;4938764;29;20498;-80
2022/02/26 14:45:14;;;;;;;9.87;2.67;;;2.70;96.30;;;;;;4923377;29;20500;-80
2022/02/26 14:47:39;;;;;;;8.53;2.90;;;2.60;96.30;;;;;;4941347;29;20928;-81
2022/02/26 14:50:05;;;;;;;12.63;3.90;;;2.50;96.30;;;;;;4923818;29;20419;-81
2022/02/26 14:52:31;;;;;;;10.47;3.17;;;2.50;96.30;;;;;;4921456;29;20203;-81
2022/02/26 14:54:57;;;;;;;11.97;2.90;;;2.50;96.30;;;;;;4923445;29;20944;-80
2022/02/26 14:57:22;;;;;;;13.07;3.30;;;2.40;96.30;;;;;;4922838;29;20203;-81
2022/02/26 14:59:48;;;;;;;15.27;3.60;;;2.40;96.30;;;;;;4922191;29;20271;-81
2022/02/26 15:02:14;;;;;;;12.30;3.33;;;2.40;96.30;;;;;;4921567;29;20214;-81
2022/02/26 15:04:43;;;;;;;17.20;4.57;;;2.40;96.30;;;;;;4938398;29;20826;-81
2022/02/26 15:07:18;;;;;;;12.37;3.70;;;2.40;96.30;;;;;;4937994;29;20407;-81
2022/02/26 15:09:44;;;;;;;17.07;3.00;;;2.40;96.30;;;;;;4938780;29;20391;-80
2022/02/26 15:12:11;;;;;;;11.33;3.63;;;2.40;96.30;;;;;;4925547;29;20972;-79
2022/02/26 15:14:36;;;;;;;12.13;3.53;;;2.40;96.30;;;;;;4921673;29;20506;-81
2022/02/26 15:17:02;;;;;;;10.37;3.40;;;2.40;96.30;;;;;;4920758;29;20518;-80
2022/02/26 15:19:28;;;;;;;12.60;3.17;;;2.50;96.30;;;;;;4936821;29;20176;-81
2022/02/26 15:21:54;;;;;;;18.40;4.30;;;2.50;96.30;;;;;;4919876;29;20212;-81
2022/02/26 15:24:20;;;;;;;21.30;3.57;;;2.50;96.30;;;;;;4919924;29;20228;-80
2022/02/26 15:26:46;;;;;;;18.13;3.53;;;2.40;96.30;;;;;;4939548;29;20415;-81
2022/02/26 15:29:11;;;;;;;11.93;2.33;;;2.40;96.30;;;;;;4936523;29;20175;-81
2022/02/26 15:31:38;;;;;;;16.83;3.53;;;2.40;96.30;;;;;;4937066;29;20192;-80
2022/02/26 15:34:03;;;;;;;12.77;3.40;;;2.40;96.30;;;;;;4931156;29;20489;-79
2022/02/26 15:36:29;;;;;;;12.00;3.57;;;2.40;96.30;;;;;;4958855;29;20466;-78
2022/02/26 15:38:54;;;;;;;16.53;3.80;;;2.30;96.30;;;;;;4942665;29;20370;-79
2022/02/26 15:41:20;;;;;;;21.67;3.57;;;2.30;96.30;;;;;;4949461;29;20226;-80
2022/02/26 15:43:45;;;;;;;32.80;5.07;;;2.30;96.30;;;;;;4959207;29;20182;-79
2022/02/26 15:46:11;;;;;;;14.70;3.50;;;2.30;96.30;;;;;;4942442;29;20247;-80
2022/02/26 15:48:37;;;;;;;9.10;2.80;;;2.30;96.30;;;;;;4938205;29;20339;-79
2022/02/26 15:51:04;;;;;;;12.00;3.67;;;2.20;96.30;;;;;;4940032;29;20275;-79
2022/02/26 15:53:30;;;;;;;15.50;3.97;;;2.20;96.30;;;;;;4923021;29;20435;-80
2022/02/26 15:55:55;;;;;;;10.73;3.10;;;2.20;96.30;;;;;;4937921;29;21097;-79
2022/02/26 15:58:21;;;;;;;14.73;2.80;;;2.20;96.30;;;;;;4937392;29;20445;-79
2022/02/26 16:00:48;;;;;;;6.93;2.80;;;2.10;96.30;;;;;;4938321;29;20203;-80
2022/02/26 16:03:14;;;;;;;17.07;3.00;;;2.10;96.30;;;;;;4955041;29;20254;-79
2022/02/26 16:05:39;;;;;;;11.73;2.50;;;2.00;96.30;;;;;;4937901;29;20558;-79
2022/02/26 16:08:06;;;;;;;11.50;2.80;;;2.00;96.30;;;;;;4954883;29;20187;-80
2022/02/26 16:10:32;;;;;;;14.33;3.00;;;2.00;96.30;;;;;;4954920;29;20183;-79
2022/02/26 16:12:58;;;;;;;14.03;2.70;;;2.00;96.30;;;;;;4955239;29;21104;-76
2022/02/26 16:15:24;;;;;;;11.07;3.23;;;2.00;96.30;;;;;;4954935;29;20462;-75
2022/02/26 16:17:51;;;;;;;10.97;3.90;;;1.90;96.30;;;;;;4937165;29;20505;-75
2022/02/26 16:20:16;;;;;;;20.40;3.90;;;1.90;96.30;;;;;;4954722;29;20183;-76
2022/02/26 16:22:42;;;;;;;13.10;3.60;;;1.90;96.30;;;;;;4937378;29;21039;-76
2022/02/26 16:25:09;;;;;;;12.20;3.23;;;1.90;96.30;;;;;;4954651;29;20598;-76
2022/02/26 16:27:36;;;;;;;10.37;2.97;;;1.90;96.30;;;;;;4954057;29;20183;-76
2022/02/26 16:30:03;;;;;;;11.00;3.27;;;1.90;96.30;;;;;;4954379;29;20976;-76
2022/02/26 16:32:29;;;;;;;13.73;3.17;;;1.80;96.30;;;;;;4935092;29;20971;-77
2022/02/26 16:34:55;;;;;;;7.77;2.87;;;1.80;96.30;;;;;;4935528;29;20443;-76
2022/02/26 16:37:20;;;;;;;18.97;3.40;;;1.80;96.30;;;;;;4935312;29;20179;-75
2022/02/26 16:39:47;;;;;;;15.60;3.33;;;1.80;96.30;;;;;;4917894;29;20179;-76
2022/02/26 16:42:13;;;;;;;13.10;3.00;;;1.80;96.30;;;;;;4918165;29;20308;-75
2022/02/26 16:44:38;;;;;;;16.23;4.27;;;1.70;96.30;;;;;;4917781;29;20874;-75
2022/02/26 16:47:04;;;;;;;11.50;2.60;;;1.80;96.30;;;;;;4935221;29;20172;-75
2022/02/26 16:49:30;;;;;;;14.67;3.97;;;1.80;96.30;;;;;;4917527;29;20552;-76
2022/02/26 16:51:55;;;;;;;12.57;3.27;;;1.80;96.30;;;;;;4918342;29;20443;-77
2022/02/26 16:54:21;;;;;;;13.27;3.73;;;1.80;96.30;;;;;;4918109;29;20258;-76
2022/02/26 16:56:46;;;;;;;10.40;4.23;;;1.70;96.30;;;;;;4917917;29;20187;-76